createdAt,value
2019-05-17T00:04:58.092Z,86.1
2019-05-17T00:09:57.977Z,86.5
2019-05-17T00:15:00.404Z,86.5
2019-05-17T00:19:57.839Z,86.4
2019-05-17T00:24:57.873Z,88.1
2019-05-17T00:29:58.033Z,89.9
2019-05-17T00:34:57.873Z,90.1
2019-05-17T00:39:57.717Z,90.3
2019-05-17T00:44:58.095Z,90.5
2019-05-17T00:49:57.860Z,91.7
2019-05-17T00:54:57.838Z,92
2019-05-17T00:59:57.758Z,91.5
2019-05-17T01:04:57.848Z,90.7
2019-05-17T01:09:57.929Z,91
2019-05-17T01:14:58.296Z,91.4
2019-05-17T01:19:57.708Z,92.3
2019-05-17T01:25:01.830Z,92.3
2019-05-17T01:29:58.031Z,92.8
2019-05-17T01:34:58.013Z,93.9
2019-05-17T01:39:57.745Z,94.3
2019-05-17T01:44:57.677Z,92.9
2019-05-17T01:49:57.852Z,93.2
2019-05-17T01:54:57.689Z,94.1
2019-05-17T01:59:57.795Z,94.4
2019-05-17T02:04:57.981Z,94.6
2019-05-17T02:09:57.779Z,94.6
2019-05-17T02:14:57.836Z,94.5
2019-05-17T02:19:57.536Z,93.7
2019-05-17T02:24:57.631Z,94.4
2019-05-17T02:29:58.147Z,93.2
2019-05-17T02:34:57.731Z,91
2019-05-17T02:40:03.074Z,90.4
2019-05-17T02:44:57.907Z,91.9
2019-05-17T02:49:57.557Z,92.6
2019-05-17T02:54:57.674Z,93.3
2019-05-17T02:59:57.913Z,93.2
2019-05-17T03:04:57.872Z,93.9
2019-05-17T03:10:12.431Z,93.9
2019-05-17T03:14:57.788Z,94.3
2019-05-17T03:19:57.668Z,93.8
2019-05-17T03:24:57.803Z,94.5
2019-05-17T03:29:58.062Z,95
2019-05-17T03:34:57.708Z,95.9
2019-05-17T03:39:57.532Z,96.8
2019-05-17T03:45:02.639Z,96.6
2019-05-17T03:49:57.854Z,97
2019-05-17T03:54:58.074Z,97.7
2019-05-17T03:59:57.777Z,98.7
2019-05-17T04:04:57.418Z,99.4
2019-05-17T04:09:57.637Z,99.5
2019-05-17T04:14:57.513Z,99.8
2019-05-17T04:19:57.384Z,99.7
2019-05-17T04:24:57.867Z,99.6
2019-05-17T04:29:57.427Z,98.7
2019-05-17T04:34:57.478Z,97.3
2019-05-17T04:39:57.747Z,97.4
2019-05-17T04:44:57.760Z,97.3
2019-05-17T04:49:58.057Z,97.1
2019-05-17T04:54:57.587Z,96.8
2019-05-17T04:59:57.627Z,96.4
2019-05-17T05:04:57.256Z,96.2
2019-05-17T05:09:57.658Z,94.2
2019-05-17T05:14:57.646Z,95.2
2019-05-17T05:19:57.280Z,95
2019-05-17T05:24:57.420Z,94.2
2019-05-17T05:29:57.576Z,93.9
2019-05-17T05:34:57.660Z,93
2019-05-17T05:39:57.184Z,91.5
2019-05-17T05:44:57.516Z,92.2
2019-05-17T05:49:57.752Z,91.9
2019-05-17T05:54:57.166Z,90.3
2019-05-17T05:59:57.588Z,90.2
2019-05-17T06:04:57.372Z,89
2019-05-17T06:09:57.227Z,87.1
2019-05-17T06:14:57.376Z,87.4
2019-05-17T06:19:57.490Z,87.3
2019-05-17T06:24:57.358Z,87.8
2019-05-17T06:29:57.401Z,87.6
2019-05-17T06:34:57.220Z,88.1
2019-05-17T06:39:57.245Z,87.7
2019-05-17T06:44:57.142Z,86.1
2019-05-17T06:49:57.226Z,86.6
2019-05-17T06:54:57.256Z,86.3
2019-05-17T06:59:59.323Z,86.2
2019-05-17T07:04:57.298Z,85.8
2019-05-17T07:09:57.277Z,85
2019-05-17T07:14:58.474Z,84.4
2019-05-17T07:19:59.519Z,83.2
2019-05-17T07:24:59.558Z,82
2019-05-17T07:29:59.259Z,81.9
2019-05-17T07:34:59.839Z,82
2019-05-17T07:40:02.068Z,82.3
2019-05-17T07:44:57.189Z,82
2019-05-17T07:49:57.180Z,82.2
2019-05-17T07:55:01.901Z,81.9
2019-05-17T07:59:57.001Z,80.3
2019-05-17T08:04:57.246Z,78.4
2019-05-17T08:09:59.921Z,77.4
2019-05-17T08:14:59.684Z,76
2019-05-17T08:19:57.305Z,75.4
2019-05-17T08:24:57.224Z,75.5
2019-05-17T08:29:59.381Z,76.4
2019-05-17T08:34:57.289Z,75.2
2019-05-17T08:39:59.875Z,75.5
2019-05-17T08:44:56.944Z,74.9
2019-05-17T08:49:57.029Z,73.4
2019-05-17T08:54:57.260Z,72.7
2019-05-17T08:59:57.201Z,70.9
2019-05-17T09:04:57.248Z,70
2019-05-17T09:09:56.923Z,68.4
2019-05-17T09:14:57.097Z,68.3
2019-05-17T09:19:57.001Z,68.1
2019-05-17T09:24:59.474Z,66.6
2019-05-17T09:29:57.143Z,65.8
2019-05-17T09:34:57.184Z,64.7
2019-05-17T09:39:56.867Z,65.4
2019-05-17T09:44:57.063Z,66.2
2019-05-17T09:49:57.032Z,66.2
2019-05-17T09:54:56.834Z,68.6
2019-05-17T09:59:57.135Z,68.5
2019-05-17T10:04:57.008Z,67.9
2019-05-17T10:09:59.547Z,67.3
2019-05-17T10:14:57.170Z,67.2
2019-05-17T10:19:56.921Z,66.8
2019-05-17T10:24:57.177Z,64.6
2019-05-17T10:29:59.360Z,64.4
2019-05-17T10:34:56.907Z,63.4
2019-05-17T10:39:56.882Z,64.9
2019-05-17T10:44:59.759Z,64.3
2019-05-17T10:49:57.108Z,65.4
2019-05-17T10:54:59.596Z,65.1
2019-05-17T10:59:59.155Z,64.6
2019-05-17T11:04:57.065Z,65.8
2019-05-17T11:09:59.909Z,65.1
2019-05-17T11:15:10.389Z,65.7
2019-05-17T11:19:56.744Z,64.5
2019-05-17T11:24:56.859Z,63.8
2019-05-17T11:29:57.157Z,62.9
2019-05-17T11:34:56.700Z,61.1
2019-05-17T11:39:56.891Z,61.1
2019-05-17T11:44:56.802Z,61
2019-05-17T11:49:56.785Z,61.7
2019-05-17T11:54:56.830Z,60.5
2019-05-17T11:59:56.799Z,60.4
2019-05-17T12:04:57.262Z,60.7
2019-05-17T12:09:56.763Z,60.4
2019-05-17T12:14:56.727Z,57.4
2019-05-17T12:19:56.888Z,57.3
2019-05-17T12:24:57.027Z,58.6
2019-05-17T12:29:57.204Z,57.2
2019-05-17T12:34:56.681Z,54.4
2019-05-17T12:39:56.825Z,56.1
2019-05-17T12:44:56.729Z,55.9
2019-05-17T12:49:56.813Z,55.2
2019-05-17T12:54:57.143Z,55.3
2019-05-17T12:59:56.897Z,57.6
2019-05-17T13:04:56.617Z,59.9
2019-05-17T13:09:56.653Z,60.6
2019-05-17T13:14:56.901Z,61.1
2019-05-17T13:19:56.845Z,60.7
2019-05-17T13:24:56.762Z,60.6
2019-05-17T13:29:57.000Z,59.1
2019-05-17T13:34:56.906Z,58.8
2019-05-17T13:39:56.888Z,58.1
2019-05-17T13:44:56.881Z,58.1
2019-05-17T13:49:56.950Z,57.4
2019-05-17T13:54:56.891Z,58.2
2019-05-17T13:59:56.764Z,59
2019-05-17T14:04:56.900Z,59.5
2019-05-17T14:09:56.790Z,59.3
2019-05-17T14:14:56.747Z,58.9
2019-05-17T14:19:56.677Z,58
2019-05-17T14:24:56.516Z,58.7
2019-05-17T14:29:56.495Z,59.3
2019-05-17T14:34:56.881Z,60.1
2019-05-17T14:39:56.515Z,59.8
2019-05-17T14:44:56.916Z,59.8
2019-05-17T14:49:56.858Z,59.8
2019-05-17T14:54:56.891Z,62.1
2019-05-17T14:59:56.809Z,62.4
2019-05-17T15:04:56.594Z,62.9
2019-05-17T15:09:56.564Z,63.4
2019-05-17T15:14:56.681Z,64.2
2019-05-17T15:19:56.685Z,64.5
2019-05-17T15:24:56.482Z,64.6
2019-05-17T15:29:56.562Z,65.1
2019-05-17T15:34:56.552Z,66.4
2019-05-17T15:39:56.533Z,67.1
2019-05-17T15:44:56.900Z,67.1
2019-05-17T15:49:56.480Z,66.5
2019-05-17T15:54:56.496Z,66.5
2019-05-17T15:59:56.400Z,66.3
2019-05-17T16:04:56.625Z,66.5
2019-05-17T16:09:56.651Z,67.1
2019-05-17T16:14:56.582Z,66.8
2019-05-17T16:19:56.556Z,67.3
2019-05-17T16:24:56.521Z,67.5
2019-05-17T16:29:56.541Z,67.8
2019-05-17T16:34:56.678Z,68.3
2019-05-17T16:39:56.719Z,68.5
2019-05-17T16:44:56.560Z,68.5
2019-05-17T16:49:56.669Z,68.5
2019-05-17T16:54:56.628Z,68.8
2019-05-17T16:59:56.346Z,69.1
2019-05-17T17:04:56.474Z,69.4
2019-05-17T17:09:56.731Z,69.5
2019-05-17T17:14:56.396Z,69.4
2019-05-17T17:19:56.521Z,69
2019-05-17T17:24:56.417Z,70
2019-05-17T17:29:56.326Z,69.9
2019-05-17T17:34:56.494Z,70.7
2019-05-17T17:39:56.355Z,70.4
2019-05-17T17:44:56.491Z,70.6
2019-05-17T17:49:56.220Z,70.1
2019-05-17T17:54:56.499Z,70.8
2019-05-17T17:59:56.382Z,70.7
2019-05-17T18:04:56.636Z,70.7
2019-05-17T18:09:56.313Z,70.8
2019-05-17T18:14:56.404Z,71.3
2019-05-17T18:19:56.518Z,71.6
2019-05-17T18:24:56.423Z,71.4
2019-05-17T18:29:56.475Z,71.5
2019-05-17T18:34:56.272Z,71.6
2019-05-17T18:39:56.418Z,71.9
2019-05-17T18:44:56.375Z,72
2019-05-17T18:49:56.420Z,72.3
2019-05-17T18:54:56.524Z,73.1
2019-05-17T18:59:56.484Z,74.2
2019-05-17T19:04:56.135Z,77.4
2019-05-17T19:09:56.438Z,79
2019-05-17T19:14:56.352Z,79.8
2019-05-17T19:19:56.196Z,80.6
2019-05-17T19:24:56.090Z,81.2
2019-05-17T19:29:56.267Z,81.5
2019-05-17T19:34:56.092Z,82.5
2019-05-17T19:39:56.122Z,82.8
2019-05-17T19:44:59.008Z,83.3
2019-05-17T19:49:56.460Z,83.6
2019-05-17T19:54:56.224Z,83.8
2019-05-17T19:59:56.203Z,84
2019-05-17T20:04:56.072Z,84.4
2019-05-17T20:09:56.584Z,83.6
2019-05-17T20:14:56.047Z,84.8
2019-05-17T20:19:56.050Z,86.7
2019-05-17T20:24:56.338Z,86.8
2019-05-17T20:29:56.363Z,86.6
2019-05-17T20:34:56.428Z,86.8
2019-05-17T20:39:56.320Z,87.5
2019-05-17T20:44:56.323Z,87.6
2019-05-17T20:49:56.207Z,88.6
2019-05-17T20:54:56.210Z,89.3
2019-05-17T20:59:56.330Z,89.2
2019-05-17T21:04:56.156Z,89.3
2019-05-17T21:09:56.227Z,88.5
2019-05-17T21:14:56.650Z,88.9
2019-05-17T21:19:56.287Z,89.5
2019-05-17T21:24:55.983Z,89.2
2019-05-17T21:29:56.250Z,90
2019-05-17T21:34:55.874Z,90.6
2019-05-17T21:39:55.988Z,90.8
2019-05-17T21:44:56.098Z,91.3
2019-05-17T21:49:56.286Z,91.6
2019-05-17T21:54:56.112Z,91.7
2019-05-17T21:59:56.180Z,92
2019-05-17T22:04:56.128Z,91.8
2019-05-17T22:09:56.139Z,93.3
2019-05-17T22:14:55.893Z,93.1
2019-05-17T22:19:56.192Z,93.2
2019-05-17T22:24:56.090Z,93.7
2019-05-17T22:29:56.139Z,93.9
2019-05-17T22:34:56.272Z,94.8
2019-05-17T22:39:55.925Z,94.5
2019-05-17T22:44:56.021Z,94.7
2019-05-17T22:49:55.999Z,95.2
2019-05-17T22:54:56.185Z,94.8
2019-05-17T22:59:56.169Z,95.1
2019-05-17T23:04:56.176Z,95
2019-05-17T23:09:55.904Z,95
2019-05-17T23:14:56.094Z,95
2019-05-17T23:19:56.092Z,95.2
2019-05-17T23:24:56.012Z,95.3
2019-05-17T23:29:56.044Z,94.6
2019-05-17T23:34:55.751Z,94.3
2019-05-17T23:39:55.804Z,93.9
2019-05-17T23:44:55.998Z,93.5
2019-05-17T23:49:56.084Z,93.4
2019-05-17T23:54:55.846Z,93.3
2019-05-17T23:59:55.761Z,93.3
